DRZA/AJY METAR and TAF weather

Enter ICAO airport designator
Station Type Date Time Source
DRZA METAR 2020/03/28 18:00 UTC NOAA

DRZA 281800Z 10008KT CAVOK 36/03 Q1012


Station Type Date Time Source
DRZA Decoded METAR 2020/03/28 18:00 UTC NOAA

Agadez, Niger (DRZA) 16-58N 007-59E 502M
Mar 28, 2020 - 02:00 PM EDT / 2020.03.28 1800 UTC
Wind: from the E (100 degrees) at 9 MPH (8 KT):0
Visibility: greater than 7 mile(s):0
Temperature: 96 F (36 C)
Dew Point: 37 F (3 C)
Relative Humidity: 12%
Pressure (altimeter): 29.88 in. Hg (1012 hPa)
ob: DRZA 281800Z 10008KT CAVOK 36/03 Q1012
cycle: 18

Station Type Date Time Source
DRZA TAF 2020/03/28 18:21 UTC NOAA

TAF DRZA 281700Z 2818/2918 04006KT CAVOK

Example: see airport list